Strona główna
METAR-TAF:

METAR-TAF

Lotnisko :

Hazleton, Pensylwania, Stany Zjednoczone

Szerokość geograficzna: 40-59-12N, Długość geograficzna: 075-59-42W, wysokość: 489 m

Aktualna obserwacja pogody

Raport powstał 28 minut temu, godzina 06:56 UTC
Wiatr 7 kt od południowo-południowy wschód
Temperatura 6°C
Wilgotność 93%
Ciśnienie 1008 hPa
Widzialność: 6.4 km
Rozproszone chmury na wysokości 300 ft
Przerywane chmury na wysokości 800 ft
Zachmurzenie całkowite na wysokości 4100 ft
słaby deszcz

METAR: KHZL 240656Z AUTO 15007KT 4SM -RA SCT003 BKN008 OVC041 06/05 A2976 RMK AO2

czas: 02:24 (07:24 UTC)


TAF: brakujący

Obserwacja i prognoza pogody dla ponad 4000 lotnisk (raport METAR i TAF).

Dostępne stacje oznaczono żółtymi i czerwonymi punktami na mapie.

Najedź kursorem aby zobaczyć nazwę stacji.

Kliknij aby zobaczyć obserwacje i prognozy pogody.

Aby zmienić mapę: kliknij na zielony przycisk z czarnym krzyżykiem, aby powiększyć; na zielony przycisk z myślnikiem, aby pomniejszyć; na zielone strzałki, aby przejść do map sąsiednich.


METAR-TAF: